sensor_id;sensor_type;location;lat;lon;timestamp;P1;durP1;ratioP1;P2;durP2;ratioP2
40787;SDS011;26497;52.494;7.546;2023-07-20T00:02:02;1999.90;;;999.90;;
40787;SDS011;26497;52.494;7.546;2023-07-20T00:04:30;1999.90;;;999.90;;
40787;SDS011;26497;52.494;7.546;2023-07-20T00:06:58;1999.90;;;999.90;;
40787;SDS011;26497;52.494;7.546;2023-07-20T00:09:25;94.50;;;89.38;;
40787;SDS011;26497;52.494;7.546;2023-07-20T00:11:52;95.90;;;90.82;;
40787;SDS011;26497;52.494;7.546;2023-07-20T00:14:21;95.95;;;90.90;;
40787;SDS011;26497;52.494;7.546;2023-07-20T00:16:49;1999.90;;;999.90;;
40787;SDS011;26497;52.494;7.546;2023-07-20T00:19:20;1999.90;;;999.90;;
40787;SDS011;26497;52.494;7.546;2023-07-20T00:21:48;94.88;;;89.68;;
40787;SDS011;26497;52.494;7.546;2023-07-20T00:24:15;1999.90;;;999.90;;
40787;SDS011;26497;52.494;7.546;2023-07-20T00:26:42;1999.90;;;999.90;;
40787;SDS011;26497;52.494;7.546;2023-07-20T00:29:09;1999.90;;;999.90;;
40787;SDS011;26497;52.494;7.546;2023-07-20T00:31:38;1999.90;;;999.90;;
40787;SDS011;26497;52.494;7.546;2023-07-20T00:34:05;1999.90;;;999.90;;
40787;SDS011;26497;52.494;7.546;2023-07-20T00:36:32;1999.90;;;999.90;;
40787;SDS011;26497;52.494;7.546;2023-07-20T00:38:59;1999.90;;;999.90;;
40787;SDS011;26497;52.494;7.546;2023-07-20T00:41:26;1999.90;;;999.90;;
40787;SDS011;26497;52.494;7.546;2023-07-20T00:43:54;1999.90;;;999.90;;
40787;SDS011;26497;52.494;7.546;2023-07-20T00:46:21;1999.90;;;999.90;;
40787;SDS011;26497;52.494;7.546;2023-07-20T00:48:51;1999.90;;;999.90;;
40787;SDS011;26497;52.494;7.546;2023-07-20T00:51:20;1999.90;;;999.90;;
40787;SDS011;26497;52.494;7.546;2023-07-20T00:53:48;1999.90;;;999.90;;
40787;SDS011;26497;52.494;7.546;2023-07-20T00:56:15;1999.90;;;999.90;;
40787;SDS011;26497;52.494;7.546;2023-07-20T00:58:42;1999.90;;;999.90;;
40787;SDS011;26497;52.494;7.546;2023-07-20T01:01:10;1999.90;;;999.90;;
40787;SDS011;26497;52.494;7.546;2023-07-20T01:03:37;1999.90;;;999.90;;
40787;SDS011;26497;52.494;7.546;2023-07-20T01:06:08;1999.90;;;999.90;;
40787;SDS011;26497;52.494;7.546;2023-07-20T01:08:52;1999.90;;;999.90;;
40787;SDS011;26497;52.494;7.546;2023-07-20T01:11:28;1999.90;;;999.90;;
40787;SDS011;26497;52.494;7.546;2023-07-20T01:14:02;1999.90;;;999.90;;
40787;SDS011;26497;52.494;7.546;2023-07-20T01:16:30;1999.90;;;999.90;;
40787;SDS011;26497;52.494;7.546;2023-07-20T01:18:59;1999.90;;;999.90;;
40787;SDS011;26497;52.494;7.546;2023-07-20T01:21:28;1999.90;;;999.90;;
40787;SDS011;26497;52.494;7.546;2023-07-20T01:24:23;1999.90;;;999.90;;
40787;SDS011;26497;52.494;7.546;2023-07-20T01:27:16;1999.90;;;999.90;;
40787;SDS011;26497;52.494;7.546;2023-07-20T01:30:12;1999.90;;;999.90;;
40787;SDS011;26497;52.494;7.546;2023-07-20T01:32:56;1999.90;;;999.90;;
40787;SDS011;26497;52.494;7.546;2023-07-20T01:35:27;1999.90;;;999.90;;
40787;SDS011;26497;52.494;7.546;2023-07-20T01:37:56;1999.90;;;999.90;;
40787;SDS011;26497;52.494;7.546;2023-07-20T01:40:25;1999.90;;;999.90;;
40787;SDS011;26497;52.494;7.546;2023-07-20T01:42:52;1999.90;;;999.90;;
40787;SDS011;26497;52.494;7.546;2023-07-20T01:45:19;1999.90;;;999.90;;
40787;SDS011;26497;52.494;7.546;2023-07-20T01:47:46;1999.90;;;999.90;;
40787;SDS011;26497;52.494;7.546;2023-07-20T01:50:15;1999.90;;;999.90;;
40787;SDS011;26497;52.494;7.546;2023-07-20T01:52:42;1999.90;;;999.90;;
40787;SDS011;26497;52.494;7.546;2023-07-20T01:55:09;1999.90;;;999.90;;
40787;SDS011;26497;52.494;7.546;2023-07-20T01:57:36;1999.90;;;999.90;;
40787;SDS011;26497;52.494;7.546;2023-07-20T02:00:04;1999.90;;;999.90;;
40787;SDS011;26497;52.494;7.546;2023-07-20T02:02:33;1999.90;;;999.90;;
40787;SDS011;26497;52.494;7.546;2023-07-20T02:05:00;1999.90;;;999.90;;
40787;SDS011;26497;52.494;7.546;2023-07-20T02:07:29;1999.90;;;999.90;;
40787;SDS011;26497;52.494;7.546;2023-07-20T02:09:56;1999.90;;;999.90;;
40787;SDS011;26497;52.494;7.546;2023-07-20T02:12:23;1999.90;;;999.90;;
40787;SDS011;26497;52.494;7.546;2023-07-20T02:14:50;1999.90;;;999.90;;
40787;SDS011;26497;52.494;7.546;2023-07-20T02:17:18;1999.90;;;999.90;;
40787;SDS011;26497;52.494;7.546;2023-07-20T02:19:45;1999.90;;;999.90;;
40787;SDS011;26497;52.494;7.546;2023-07-20T02:22:14;1999.90;;;999.90;;
40787;SDS011;26497;52.494;7.546;2023-07-20T02:24:43;1999.90;;;999.90;;
40787;SDS011;26497;52.494;7.546;2023-07-20T02:27:10;1999.90;;;999.90;;
40787;SDS011;26497;52.494;7.546;2023-07-20T02:29:37;1999.90;;;999.90;;
40787;SDS011;26497;52.494;7.546;2023-07-20T02:32:04;1999.90;;;999.90;;
40787;SDS011;26497;52.494;7.546;2023-07-20T02:34:33;1999.90;;;999.90;;
40787;SDS011;26497;52.494;7.546;2023-07-20T02:37:00;1999.90;;;999.90;;
40787;SDS011;26497;52.494;7.546;2023-07-20T02:39:27;1999.90;;;999.90;;
40787;SDS011;26497;52.494;7.546;2023-07-20T02:41:55;1999.90;;;999.90;;
40787;SDS011;26497;52.494;7.546;2023-07-20T02:44:22;1999.90;;;999.90;;
40787;SDS011;26497;52.494;7.546;2023-07-20T02:46:49;1999.90;;;999.90;;
40787;SDS011;26497;52.494;7.546;2023-07-20T02:49:16;1999.90;;;999.90;;
40787;SDS011;26497;52.494;7.546;2023-07-20T02:51:43;1999.90;;;999.90;;
40787;SDS011;26497;52.494;7.546;2023-07-20T02:54:11;1999.90;;;999.90;;
40787;SDS011;26497;52.494;7.546;2023-07-20T02:56:38;1999.90;;;999.90;;
40787;SDS011;26497;52.494;7.546;2023-07-20T02:59:06;1999.90;;;999.90;;
40787;SDS011;26497;52.494;7.546;2023-07-20T03:01:34;1999.90;;;999.90;;
40787;SDS011;26497;52.494;7.546;2023-07-20T03:04:01;1999.90;;;999.90;;
40787;SDS011;26497;52.494;7.546;2023-07-20T03:06:29;1999.90;;;999.90;;
40787;SDS011;26497;52.494;7.546;2023-07-20T03:08:56;565.90;;;312.08;;
40787;SDS011;26497;52.494;7.546;2023-07-20T03:11:23;565.25;;;311.45;;
40787;SDS011;26497;52.494;7.546;2023-07-20T03:13:50;564.90;;;311.08;;
40787;SDS011;26497;52.494;7.546;2023-07-20T03:16:19;1999.90;;;999.90;;
40787;SDS011;26497;52.494;7.546;2023-07-20T03:18:46;1999.90;;;999.90;;
40787;SDS011;26497;52.494;7.546;2023-07-20T03:21:13;564.85;;;310.77;;
40787;SDS011;26497;52.494;7.546;2023-07-20T03:23:40;1999.90;;;999.90;;
40787;SDS011;26497;52.494;7.546;2023-07-20T03:26:08;1999.90;;;999.90;;
40787;SDS011;26497;52.494;7.546;2023-07-20T03:28:35;570.65;;;316.42;;
40787;SDS011;26497;52.494;7.546;2023-07-20T03:31:04;569.75;;;315.73;;
40787;SDS011;26497;52.494;7.546;2023-07-20T03:33:34;571.15;;;316.88;;
40787;SDS011;26497;52.494;7.546;2023-07-20T03:36:01;571.67;;;317.48;;
40787;SDS011;26497;52.494;7.546;2023-07-20T03:38:28;571.17;;;316.55;;
40787;SDS011;26497;52.494;7.546;2023-07-20T03:40:56;572.10;;;317.75;;
40787;SDS011;26497;52.494;7.546;2023-07-20T03:43:25;99.78;;;93.97;;
40787;SDS011;26497;52.494;7.546;2023-07-20T03:45:53;93.63;;;87.75;;
40787;SDS011;26497;52.494;7.546;2023-07-20T03:48:22;93.68;;;87.85;;
40787;SDS011;26497;52.494;7.546;2023-07-20T03:50:52;96.35;;;90.35;;
40787;SDS011;26497;52.494;7.546;2023-07-20T03:53:20;96.43;;;90.10;;
40787;SDS011;26497;52.494;7.546;2023-07-20T03:55:47;96.90;;;90.78;;
40787;SDS011;26497;52.494;7.546;2023-07-20T03:58:17;92.47;;;87.07;;
40787;SDS011;26497;52.494;7.546;2023-07-20T04:00:46;91.28;;;85.47;;
40787;SDS011;26497;52.494;7.546;2023-07-20T04:03:15;92.70;;;87.15;;
40787;SDS011;26497;52.494;7.546;2023-07-20T04:05:43;89.03;;;83.22;;
40787;SDS011;26497;52.494;7.546;2023-07-20T04:08:12;87.25;;;81.75;;
40787;SDS011;26497;52.494;7.546;2023-07-20T04:10:39;84.40;;;78.88;;
40787;SDS011;26497;52.494;7.546;2023-07-20T04:13:09;81.53;;;76.30;;
40787;SDS011;26497;52.494;7.546;2023-07-20T04:15:36;80.45;;;75.25;;
40787;SDS011;26497;52.494;7.546;2023-07-20T04:18:03;83.97;;;78.28;;
40787;SDS011;26497;52.494;7.546;2023-07-20T04:20:30;85.20;;;79.38;;
40787;SDS011;26497;52.494;7.546;2023-07-20T04:22:57;86.10;;;80.45;;
40787;SDS011;26497;52.494;7.546;2023-07-20T04:25:25;86.22;;;80.97;;
40787;SDS011;26497;52.494;7.546;2023-07-20T04:27:52;86.80;;;81.30;;
40787;SDS011;26497;52.494;7.546;2023-07-20T04:30:20;92.07;;;85.72;;
40787;SDS011;26497;52.494;7.546;2023-07-20T04:32:48;89.07;;;83.05;;
40787;SDS011;26497;52.494;7.546;2023-07-20T04:35:17;87.05;;;81.70;;
40787;SDS011;26497;52.494;7.546;2023-07-20T04:38:09;81.30;;;76.10;;
40787;SDS011;26497;52.494;7.546;2023-07-20T04:40:38;63.70;;;59.92;;
40787;SDS011;26497;52.494;7.546;2023-07-20T04:43:05;55.55;;;51.95;;
40787;SDS011;26497;52.494;7.546;2023-07-20T04:45:32;59.08;;;55.60;;
40787;SDS011;26497;52.494;7.546;2023-07-20T04:47:59;69.68;;;65.80;;
40787;SDS011;26497;52.494;7.546;2023-07-20T04:50:26;80.15;;;75.50;;
40787;SDS011;26497;52.494;7.546;2023-07-20T04:52:53;89.38;;;84.38;;
40787;SDS011;26497;52.494;7.546;2023-07-20T04:55:20;66.57;;;62.65;;
40787;SDS011;26497;52.494;7.546;2023-07-20T04:57:48;62.92;;;59.30;;
40787;SDS011;26497;52.494;7.546;2023-07-20T05:00:15;60.15;;;56.95;;
40787;SDS011;26497;52.494;7.546;2023-07-20T05:02:43;60.22;;;56.63;;
40787;SDS011;26497;52.494;7.546;2023-07-20T05:05:10;63.15;;;59.85;;
40787;SDS011;26497;52.494;7.546;2023-07-20T05:07:37;69.82;;;65.90;;
40787;SDS011;26497;52.494;7.546;2023-07-20T05:10:05;80.30;;;75.90;;
40787;SDS011;26497;52.494;7.546;2023-07-20T05:12:33;84.18;;;79.75;;
40787;SDS011;26497;52.494;7.546;2023-07-20T05:15:01;93.38;;;88.38;;
40787;SDS011;26497;52.494;7.546;2023-07-20T05:17:29;102.78;;;96.75;;
40787;SDS011;26497;52.494;7.546;2023-07-20T05:19:56;105.70;;;99.95;;
40787;SDS011;26497;52.494;7.546;2023-07-20T05:22:23;112.80;;;106.57;;
40787;SDS011;26497;52.494;7.546;2023-07-20T05:24:50;126.35;;;119.55;;
40787;SDS011;26497;52.494;7.546;2023-07-20T05:27:17;124.13;;;117.55;;
40787;SDS011;26497;52.494;7.546;2023-07-20T05:29:44;141.75;;;134.13;;
40787;SDS011;26497;52.494;7.546;2023-07-20T05:32:13;86.90;;;82.32;;
40787;SDS011;26497;52.494;7.546;2023-07-20T05:34:40;95.90;;;90.45;;
40787;SDS011;26497;52.494;7.546;2023-07-20T05:37:07;79.50;;;75.38;;
40787;SDS011;26497;52.494;7.546;2023-07-20T05:39:34;84.35;;;79.95;;
40787;SDS011;26497;52.494;7.546;2023-07-20T05:42:01;80.03;;;75.82;;
40787;SDS011;26497;52.494;7.546;2023-07-20T05:44:28;90.05;;;84.88;;
40787;SDS011;26497;52.494;7.546;2023-07-20T05:46:55;54.38;;;51.47;;
40787;SDS011;26497;52.494;7.546;2023-07-20T05:49:24;46.45;;;44.15;;
40787;SDS011;26497;52.494;7.546;2023-07-20T05:51:51;49.90;;;47.15;;
40787;SDS011;26497;52.494;7.546;2023-07-20T05:54:18;49.47;;;46.80;;
40787;SDS011;26497;52.494;7.546;2023-07-20T05:56:45;69.75;;;65.75;;
40787;SDS011;26497;52.494;7.546;2023-07-20T05:59:12;67.32;;;63.83;;
40787;SDS011;26497;52.494;7.546;2023-07-20T06:01:39;38.97;;;37.13;;
40787;SDS011;26497;52.494;7.546;2023-07-20T06:04:06;33.10;;;31.58;;
40787;SDS011;26497;52.494;7.546;2023-07-20T06:06:34;31.10;;;29.52;;
40787;SDS011;26497;52.494;7.546;2023-07-20T06:09:02;34.42;;;32.72;;
40787;SDS011;26497;52.494;7.546;2023-07-20T06:11:30;38.08;;;35.83;;
40787;SDS011;26497;52.494;7.546;2023-07-20T06:13:57;34.00;;;32.40;;
40787;SDS011;26497;52.494;7.546;2023-07-20T06:16:24;32.45;;;30.73;;
40787;SDS011;26497;52.494;7.546;2023-07-20T06:18:51;34.10;;;32.42;;
40787;SDS011;26497;52.494;7.546;2023-07-20T06:21:18;29.25;;;27.95;;
40787;SDS011;26497;52.494;7.546;2023-07-20T06:23:46;28.45;;;27.15;;
40787;SDS011;26497;52.494;7.546;2023-07-20T06:26:13;28.50;;;27.10;;
40787;SDS011;26497;52.494;7.546;2023-07-20T06:28:40;26.85;;;25.65;;
40787;SDS011;26497;52.494;7.546;2023-07-20T06:31:07;27.33;;;26.13;;
40787;SDS011;26497;52.494;7.546;2023-07-20T06:33:34;30.05;;;28.42;;
40787;SDS011;26497;52.494;7.546;2023-07-20T06:36:01;28.98;;;27.42;;
40787;SDS011;26497;52.494;7.546;2023-07-20T06:38:29;26.17;;;24.98;;
40787;SDS011;26497;52.494;7.546;2023-07-20T06:40:57;27.23;;;25.63;;
40787;SDS011;26497;52.494;7.546;2023-07-20T06:43:25;25.38;;;23.80;;
40787;SDS011;26497;52.494;7.546;2023-07-20T06:45:52;27.63;;;26.20;;
40787;SDS011;26497;52.494;7.546;2023-07-20T06:48:19;29.77;;;28.25;;
40787;SDS011;26497;52.494;7.546;2023-07-20T06:50:47;30.23;;;28.85;;
40787;SDS011;26497;52.494;7.546;2023-07-20T06:53:14;29.58;;;28.17;;
40787;SDS011;26497;52.494;7.546;2023-07-20T06:55:42;30.50;;;28.95;;
40787;SDS011;26497;52.494;7.546;2023-07-20T06:58:11;28.02;;;26.70;;
40787;SDS011;26497;52.494;7.546;2023-07-20T07:00:38;25.75;;;23.95;;
40787;SDS011;26497;52.494;7.546;2023-07-20T07:03:05;28.08;;;26.70;;
40787;SDS011;26497;52.494;7.546;2023-07-20T07:05:35;27.45;;;26.15;;
40787;SDS011;26497;52.494;7.546;2023-07-20T07:08:03;23.95;;;22.90;;
40787;SDS011;26497;52.494;7.546;2023-07-20T07:10:31;24.05;;;22.63;;
40787;SDS011;26497;52.494;7.546;2023-07-20T07:12:58;23.02;;;22.02;;
40787;SDS011;26497;52.494;7.546;2023-07-20T07:15:26;25.30;;;24.20;;
40787;SDS011;26497;52.494;7.546;2023-07-20T07:17:53;24.30;;;23.15;;
40787;SDS011;26497;52.494;7.546;2023-07-20T07:20:21;22.48;;;21.40;;
40787;SDS011;26497;52.494;7.546;2023-07-20T07:22:50;23.35;;;21.95;;
40787;SDS011;26497;52.494;7.546;2023-07-20T07:25:18;23.60;;;22.50;;
40787;SDS011;26497;52.494;7.546;2023-07-20T07:27:45;23.58;;;22.58;;
40787;SDS011;26497;52.494;7.546;2023-07-20T07:30:12;23.80;;;22.63;;
40787;SDS011;26497;52.494;7.546;2023-07-20T07:32:41;22.80;;;21.42;;
40787;SDS011;26497;52.494;7.546;2023-07-20T07:35:08;25.60;;;24.42;;
40787;SDS011;26497;52.494;7.546;2023-07-20T07:37:35;23.90;;;22.80;;
40787;SDS011;26497;52.494;7.546;2023-07-20T07:40:03;23.95;;;22.67;;
40787;SDS011;26497;52.494;7.546;2023-07-20T07:42:31;22.77;;;21.70;;
40787;SDS011;26497;52.494;7.546;2023-07-20T07:44:58;25.38;;;24.17;;
40787;SDS011;26497;52.494;7.546;2023-07-20T07:47:25;23.40;;;22.30;;
40787;SDS011;26497;52.494;7.546;2023-07-20T07:49:54;23.33;;;22.30;;
40787;SDS011;26497;52.494;7.546;2023-07-20T07:52:21;24.08;;;22.85;;
40787;SDS011;26497;52.494;7.546;2023-07-20T07:54:48;24.98;;;23.88;;
40787;SDS011;26497;52.494;7.546;2023-07-20T07:57:15;29.55;;;28.15;;
40787;SDS011;26497;52.494;7.546;2023-07-20T07:59:42;28.10;;;26.75;;
40787;SDS011;26497;52.494;7.546;2023-07-20T08:02:08;25.95;;;24.75;;
40787;SDS011;26497;52.494;7.546;2023-07-20T08:04:35;25.42;;;24.23;;
40787;SDS011;26497;52.494;7.546;2023-07-20T08:07:05;24.95;;;23.70;;
40787;SDS011;26497;52.494;7.546;2023-07-20T08:09:33;29.02;;;27.52;;
40787;SDS011;26497;52.494;7.546;2023-07-20T08:12:00;29.23;;;27.73;;
40787;SDS011;26497;52.494;7.546;2023-07-20T08:14:28;28.00;;;26.55;;
40787;SDS011;26497;52.494;7.546;2023-07-20T08:16:55;24.95;;;23.85;;
40787;SDS011;26497;52.494;7.546;2023-07-20T08:19:23;32.22;;;30.63;;
40787;SDS011;26497;52.494;7.546;2023-07-20T08:21:50;22.98;;;21.98;;
40787;SDS011;26497;52.494;7.546;2023-07-20T08:24:18;25.02;;;23.90;;
40787;SDS011;26497;52.494;7.546;2023-07-20T08:26:45;24.83;;;23.40;;
40787;SDS011;26497;52.494;7.546;2023-07-20T08:29:12;23.02;;;21.73;;
40787;SDS011;26497;52.494;7.546;2023-07-20T08:31:39;24.02;;;23.02;;
40787;SDS011;26497;52.494;7.546;2023-07-20T08:34:06;22.40;;;21.30;;
40787;SDS011;26497;52.494;7.546;2023-07-20T08:36:33;25.10;;;23.58;;
40787;SDS011;26497;52.494;7.546;2023-07-20T08:39:01;22.17;;;21.17;;
40787;SDS011;26497;52.494;7.546;2023-07-20T08:41:30;23.65;;;22.45;;
40787;SDS011;26497;52.494;7.546;2023-07-20T08:43:57;22.15;;;21.17;;
40787;SDS011;26497;52.494;7.546;2023-07-20T08:46:25;25.38;;;24.27;;
40787;SDS011;26497;52.494;7.546;2023-07-20T08:48:54;28.48;;;26.80;;
40787;SDS011;26497;52.494;7.546;2023-07-20T08:51:22;27.17;;;25.90;;
40787;SDS011;26497;52.494;7.546;2023-07-20T08:53:51;29.23;;;27.75;;
40787;SDS011;26497;52.494;7.546;2023-07-20T08:56:18;25.63;;;24.42;;
40787;SDS011;26497;52.494;7.546;2023-07-20T08:58:48;23.98;;;22.88;;
40787;SDS011;26497;52.494;7.546;2023-07-20T09:01:16;22.52;;;21.52;;
40787;SDS011;26497;52.494;7.546;2023-07-20T09:03:45;21.23;;;20.33;;
40787;SDS011;26497;52.494;7.546;2023-07-20T09:06:12;25.60;;;24.38;;
40787;SDS011;26497;52.494;7.546;2023-07-20T09:08:39;29.85;;;28.45;;
40787;SDS011;26497;52.494;7.546;2023-07-20T09:11:07;26.02;;;24.83;;
40787;SDS011;26497;52.494;7.546;2023-07-20T09:13:37;23.60;;;22.35;;
40787;SDS011;26497;52.494;7.546;2023-07-20T09:16:06;23.98;;;22.98;;
40787;SDS011;26497;52.494;7.546;2023-07-20T09:18:33;26.65;;;25.08;;
40787;SDS011;26497;52.494;7.546;2023-07-20T09:21:03;22.27;;;21.17;;
40787;SDS011;26497;52.494;7.546;2023-07-20T09:23:32;22.80;;;21.70;;
40787;SDS011;26497;52.494;7.546;2023-07-20T09:26:00;23.23;;;21.95;;
40787;SDS011;26497;52.494;7.546;2023-07-20T09:28:37;25.88;;;24.67;;
40787;SDS011;26497;52.494;7.546;2023-07-20T09:31:16;27.45;;;26.15;;
40787;SDS011;26497;52.494;7.546;2023-07-20T09:33:44;27.30;;;26.02;;
40787;SDS011;26497;52.494;7.546;2023-07-20T09:36:12;25.45;;;23.95;;
40787;SDS011;26497;52.494;7.546;2023-07-20T09:38:39;26.02;;;24.67;;
40787;SDS011;26497;52.494;7.546;2023-07-20T09:41:07;28.08;;;26.75;;
40787;SDS011;26497;52.494;7.546;2023-07-20T09:43:39;27.27;;;25.88;;
40787;SDS011;26497;52.494;7.546;2023-07-20T09:46:08;27.65;;;26.02;;
40787;SDS011;26497;52.494;7.546;2023-07-20T09:48:36;26.08;;;24.40;;
40787;SDS011;26497;52.494;7.546;2023-07-20T09:51:04;25.17;;;24.08;;
40787;SDS011;26497;52.494;7.546;2023-07-20T09:53:33;27.80;;;26.30;;
40787;SDS011;26497;52.494;7.546;2023-07-20T09:56:01;29.55;;;28.17;;
40787;SDS011;26497;52.494;7.546;2023-07-20T09:58:29;28.73;;;27.33;;
40787;SDS011;26497;52.494;7.546;2023-07-20T10:00:57;29.83;;;28.50;;
40787;SDS011;26497;52.494;7.546;2023-07-20T10:03:28;47.95;;;45.45;;
40787;SDS011;26497;52.494;7.546;2023-07-20T10:05:58;40.90;;;38.75;;
40787;SDS011;26497;52.494;7.546;2023-07-20T10:08:32;58.78;;;55.80;;
40787;SDS011;26497;52.494;7.546;2023-07-20T10:11:02;31.92;;;30.08;;
40787;SDS011;26497;52.494;7.546;2023-07-20T10:13:30;40.78;;;38.38;;
40787;SDS011;26497;52.494;7.546;2023-07-20T10:15:59;48.17;;;45.80;;
40787;SDS011;26497;52.494;7.546;2023-07-20T10:18:30;31.60;;;30.10;;
40787;SDS011;26497;52.494;7.546;2023-07-20T10:21:06;27.45;;;26.02;;
40787;SDS011;26497;52.494;7.546;2023-07-20T10:23:33;25.00;;;23.90;;
40787;SDS011;26497;52.494;7.546;2023-07-20T10:26:01;24.77;;;23.27;;
40787;SDS011;26497;52.494;7.546;2023-07-20T10:28:28;24.02;;;22.92;;
40787;SDS011;26497;52.494;7.546;2023-07-20T10:30:55;24.42;;;23.15;;
40787;SDS011;26497;52.494;7.546;2023-07-20T10:33:22;23.85;;;22.65;;
40787;SDS011;26497;52.494;7.546;2023-07-20T10:35:51;27.08;;;25.80;;
40787;SDS011;26497;52.494;7.546;2023-07-20T10:38:21;25.52;;;24.10;;
40787;SDS011;26497;52.494;7.546;2023-07-20T10:41:15;27.83;;;26.23;;
40787;SDS011;26497;52.494;7.546;2023-07-20T10:43:44;23.17;;;22.08;;
40787;SDS011;26497;52.494;7.546;2023-07-20T10:46:12;22.98;;;21.88;;
40787;SDS011;26497;52.494;7.546;2023-07-20T10:51:29;23.48;;;22.48;;
40787;SDS011;26497;52.494;7.546;2023-07-20T10:53:58;24.20;;;23.08;;
40787;SDS011;26497;52.494;7.546;2023-07-20T10:56:28;22.35;;;21.33;;
40787;SDS011;26497;52.494;7.546;2023-07-20T10:58:56;22.92;;;21.92;;
40787;SDS011;26497;52.494;7.546;2023-07-20T11:01:27;27.27;;;26.00;;
40787;SDS011;26497;52.494;7.546;2023-07-20T11:03:57;26.45;;;25.25;;
40787;SDS011;26497;52.494;7.546;2023-07-20T11:06:29;24.05;;;23.02;;
40787;SDS011;26497;52.494;7.546;2023-07-20T11:09:04;25.10;;;23.80;;
40787;SDS011;26497;52.494;7.546;2023-07-20T11:11:36;24.10;;;23.00;;
40787;SDS011;26497;52.494;7.546;2023-07-20T11:14:05;25.35;;;24.15;;
40787;SDS011;26497;52.494;7.546;2023-07-20T11:16:34;28.17;;;26.27;;
40787;SDS011;26497;52.494;7.546;2023-07-20T11:19:13;27.17;;;25.85;;
40787;SDS011;26497;52.494;7.546;2023-07-20T11:21:43;26.38;;;25.08;;
40787;SDS011;26497;52.494;7.546;2023-07-20T11:24:13;27.35;;;26.05;;
40787;SDS011;26497;52.494;7.546;2023-07-20T11:26:41;33.63;;;32.10;;
40787;SDS011;26497;52.494;7.546;2023-07-20T11:29:10;25.85;;;24.63;;
40787;SDS011;26497;52.494;7.546;2023-07-20T11:31:37;29.15;;;27.80;;
40787;SDS011;26497;52.494;7.546;2023-07-20T11:34:05;28.30;;;26.88;;
40787;SDS011;26497;52.494;7.546;2023-07-20T11:36:33;28.20;;;26.90;;
40787;SDS011;26497;52.494;7.546;2023-07-20T11:39:00;26.80;;;25.45;;
40787;SDS011;26497;52.494;7.546;2023-07-20T11:41:31;24.70;;;23.40;;
40787;SDS011;26497;52.494;7.546;2023-07-20T11:43:58;25.92;;;24.52;;
40787;SDS011;26497;52.494;7.546;2023-07-20T11:46:27;24.73;;;23.63;;
40787;SDS011;26497;52.494;7.546;2023-07-20T11:48:56;29.58;;;28.17;;
40787;SDS011;26497;52.494;7.546;2023-07-20T11:51:24;28.02;;;26.63;;
40787;SDS011;26497;52.494;7.546;2023-07-20T11:53:53;26.15;;;24.95;;
40787;SDS011;26497;52.494;7.546;2023-07-20T11:56:21;28.88;;;27.48;;
40787;SDS011;26497;52.494;7.546;2023-07-20T11:58:50;28.15;;;26.85;;
40787;SDS011;26497;52.494;7.546;2023-07-20T12:01:22;26.38;;;25.15;;
40787;SDS011;26497;52.494;7.546;2023-07-20T12:03:51;25.17;;;24.08;;
40787;SDS011;26497;52.494;7.546;2023-07-20T12:06:18;29.38;;;27.92;;
40787;SDS011;26497;52.494;7.546;2023-07-20T12:08:48;30.63;;;29.15;;
40787;SDS011;26497;52.494;7.546;2023-07-20T12:11:29;30.75;;;29.30;;
40787;SDS011;26497;52.494;7.546;2023-07-20T12:13:59;32.20;;;30.70;;
40787;SDS011;26497;52.494;7.546;2023-07-20T12:16:27;34.60;;;33.00;;
40787;SDS011;26497;52.494;7.546;2023-07-20T12:18:59;36.33;;;34.60;;
40787;SDS011;26497;52.494;7.546;2023-07-20T12:21:28;46.58;;;44.25;;
40787;SDS011;26497;52.494;7.546;2023-07-20T12:23:56;58.17;;;55.13;;
40787;SDS011;26497;52.494;7.546;2023-07-20T12:26:23;109.97;;;104.03;;
40787;SDS011;26497;52.494;7.546;2023-07-20T12:28:51;191.18;;;180.98;;
40787;SDS011;26497;52.494;7.546;2023-07-20T12:31:20;127.30;;;120.50;;
40787;SDS011;26497;52.494;7.546;2023-07-20T12:33:49;71.90;;;68.20;;
40787;SDS011;26497;52.494;7.546;2023-07-20T12:36:16;62.60;;;59.35;;
40787;SDS011;26497;52.494;7.546;2023-07-20T12:38:44;133.20;;;126.20;;
40787;SDS011;26497;52.494;7.546;2023-07-20T12:41:12;148.18;;;140.18;;
40787;SDS011;26497;52.494;7.546;2023-07-20T12:43:39;85.60;;;81.25;;
40787;SDS011;26497;52.494;7.546;2023-07-20T12:46:07;68.82;;;65.32;;
40787;SDS011;26497;52.494;7.546;2023-07-20T12:48:36;56.15;;;53.28;;
40787;SDS011;26497;52.494;7.546;2023-07-20T12:51:05;55.22;;;52.33;;
40787;SDS011;26497;52.494;7.546;2023-07-20T12:53:32;65.90;;;62.42;;
40787;SDS011;26497;52.494;7.546;2023-07-20T12:56:00;74.40;;;70.53;;
40787;SDS011;26497;52.494;7.546;2023-07-20T12:58:27;88.78;;;83.57;;
40787;SDS011;26497;52.494;7.546;2023-07-20T13:00:54;95.32;;;90.40;;
40787;SDS011;26497;52.494;7.546;2023-07-20T13:03:21;71.85;;;68.20;;
40787;SDS011;26497;52.494;7.546;2023-07-20T13:05:50;62.08;;;58.92;;
40787;SDS011;26497;52.494;7.546;2023-07-20T13:08:18;48.00;;;45.50;;
40787;SDS011;26497;52.494;7.546;2023-07-20T13:10:45;51.83;;;48.97;;
40787;SDS011;26497;52.494;7.546;2023-07-20T13:13:13;40.47;;;38.53;;
40787;SDS011;26497;52.494;7.546;2023-07-20T13:15:43;54.22;;;51.53;;
40787;SDS011;26497;52.494;7.546;2023-07-20T13:18:11;48.45;;;45.88;;
40787;SDS011;26497;52.494;7.546;2023-07-20T13:20:38;44.08;;;41.88;;
40787;SDS011;26497;52.494;7.546;2023-07-20T13:23:07;36.95;;;35.22;;
40787;SDS011;26497;52.494;7.546;2023-07-20T13:25:33;30.55;;;28.90;;
40787;SDS011;26497;52.494;7.546;2023-07-20T13:28:00;28.92;;;27.63;;
40787;SDS011;26497;52.494;7.546;2023-07-20T13:30:27;28.95;;;27.50;;
40787;SDS011;26497;52.494;7.546;2023-07-20T13:32:54;28.25;;;26.85;;
40787;SDS011;26497;52.494;7.546;2023-07-20T13:35:21;28.40;;;27.00;;
40787;SDS011;26497;52.494;7.546;2023-07-20T13:37:48;26.98;;;25.77;;
40787;SDS011;26497;52.494;7.546;2023-07-20T13:40:17;24.70;;;23.60;;
40787;SDS011;26497;52.494;7.546;2023-07-20T13:42:44;24.73;;;23.52;;
40787;SDS011;26497;52.494;7.546;2023-07-20T13:45:11;28.08;;;26.77;;
40787;SDS011;26497;52.494;7.546;2023-07-20T13:47:38;23.70;;;22.50;;
40787;SDS011;26497;52.494;7.546;2023-07-20T13:50:06;22.70;;;21.70;;
40787;SDS011;26497;52.494;7.546;2023-07-20T13:52:33;24.00;;;23.00;;
40787;SDS011;26497;52.494;7.546;2023-07-20T13:55:01;25.05;;;23.95;;
40787;SDS011;26497;52.494;7.546;2023-07-20T13:57:30;23.52;;;22.20;;
40787;SDS011;26497;52.494;7.546;2023-07-20T13:59:58;26.02;;;24.83;;
40787;SDS011;26497;52.494;7.546;2023-07-20T14:02:25;26.50;;;25.30;;
40787;SDS011;26497;52.494;7.546;2023-07-20T14:04:52;28.58;;;27.00;;
40787;SDS011;26497;52.494;7.546;2023-07-20T14:07:21;23.65;;;22.65;;
40787;SDS011;26497;52.494;7.546;2023-07-20T14:09:48;24.40;;;23.30;;
40787;SDS011;26497;52.494;7.546;2023-07-20T14:12:15;24.88;;;23.77;;
40787;SDS011;26497;52.494;7.546;2023-07-20T14:14:43;23.77;;;22.67;;
40787;SDS011;26497;52.494;7.546;2023-07-20T14:17:10;25.40;;;24.20;;
40787;SDS011;26497;52.494;7.546;2023-07-20T14:19:37;25.83;;;24.63;;
40787;SDS011;26497;52.494;7.546;2023-07-20T14:22:05;23.38;;;22.08;;